createdAt,value
2022-10-10T00:02:26.007Z,9.10
2022-10-10T00:04:58.714Z,9.10
2022-10-10T00:07:30.934Z,9.20
2022-10-10T00:10:03.529Z,10.30
2022-10-10T00:12:35.780Z,9.70
2022-10-10T00:15:10.122Z,10.70
2022-10-10T00:17:43.997Z,10.60
2022-10-10T00:20:18.111Z,10.20
2022-10-10T00:22:50.737Z,11.20
2022-10-10T00:25:23.380Z,11.70
2022-10-10T00:27:55.812Z,10.10
2022-10-10T00:30:28.850Z,11.50
2022-10-10T00:33:03.631Z,10.90
2022-10-10T00:35:35.837Z,10.60
2022-10-10T00:38:10.192Z,11.70
2022-10-10T00:40:50.083Z,10.30
2022-10-10T00:43:22.753Z,10.40
2022-10-10T00:45:56.249Z,10.90
2022-10-10T00:48:31.601Z,11.50
2022-10-10T00:51:06.929Z,11.90
2022-10-10T00:53:44.538Z,12.20
2022-10-10T00:56:19.308Z,10.10
2022-10-10T00:58:56.799Z,11.80
2022-10-10T01:01:29.062Z,12.80
2022-10-10T01:04:03.680Z,12.00
2022-10-10T01:06:35.943Z,10.80
2022-10-10T01:09:08.518Z,10.40
2022-10-10T01:11:52.581Z,10.10
2022-10-10T01:14:36.815Z,10.80
2022-10-10T01:17:18.219Z,10.20
2022-10-10T01:20:25.524Z,10.50
2022-10-10T01:23:17.263Z,9.80
2022-10-10T01:26:00.151Z,9.90
2022-10-10T01:28:41.418Z,10.90
2022-10-10T01:31:22.747Z,11.00
2022-10-10T01:34:05.624Z,12.30
2022-10-10T01:36:47.927Z,10.00
2022-10-10T01:39:25.430Z,12.10
2022-10-10T01:42:02.110Z,12.00
2022-10-10T01:44:34.680Z,12.30
2022-10-10T01:47:09.312Z,13.00
2022-10-10T01:49:45.820Z,12.50
2022-10-10T01:52:28.565Z,12.90
2022-10-10T01:55:16.201Z,13.10
2022-10-10T01:58:01.460Z,11.90
2022-10-10T02:00:42.103Z,11.90
2022-10-10T02:03:18.542Z,11.90
2022-10-10T02:05:56.230Z,12.50
2022-10-10T02:08:36.490Z,12.20
2022-10-10T02:11:11.514Z,13.00
2022-10-10T02:13:49.844Z,12.80
2022-10-10T02:16:25.922Z,11.30
2022-10-10T02:19:01.394Z,11.60
2022-10-10T02:21:36.322Z,10.90
2022-10-10T02:24:10.765Z,12.10
2022-10-10T02:26:46.591Z,11.30
2022-10-10T02:29:34.562Z,11.80
2022-10-10T02:32:13.700Z,11.40
2022-10-10T02:34:49.521Z,11.20
2022-10-10T02:37:22.541Z,11.60
2022-10-10T02:39:59.459Z,12.60
2022-10-10T02:42:34.594Z,12.70
2022-10-10T02:45:08.190Z,12.90
2022-10-10T02:47:40.343Z,11.60
2022-10-10T02:50:13.578Z,11.80
2022-10-10T02:52:50.835Z,11.40
2022-10-10T02:55:23.430Z,11.40
2022-10-10T02:57:55.651Z,10.90
2022-10-10T03:00:29.128Z,11.10
2022-10-10T03:03:02.979Z,11.40
2022-10-10T03:05:35.910Z,11.40
2022-10-10T03:08:11.752Z,11.90
2022-10-10T03:10:44.362Z,11.60
2022-10-10T03:13:16.601Z,10.00
2022-10-10T03:15:48.629Z,11.00
2022-10-10T03:18:21.423Z,11.90
2022-10-10T03:20:57.930Z,9.50
2022-10-10T03:23:32.611Z,11.60
2022-10-10T03:26:05.431Z,11.00
2022-10-10T03:28:38.910Z,10.70
2022-10-10T03:31:11.949Z,11.50
2022-10-10T03:33:44.073Z,11.20
2022-10-10T03:36:16.251Z,10.20
2022-10-10T03:38:48.562Z,10.50
2022-10-10T03:41:20.983Z,10.30
2022-10-10T03:43:52.955Z,9.60
2022-10-10T03:46:26.935Z,9.90
2022-10-10T03:48:59.638Z,9.20
2022-10-10T03:51:32.521Z,8.70
2022-10-10T03:54:04.539Z,10.50
2022-10-10T03:56:40.252Z,9.50
2022-10-10T03:59:12.289Z,7.80
2022-10-10T04:01:44.689Z,9.00
2022-10-10T04:04:16.910Z,8.60
2022-10-10T04:06:49.162Z,10.10
2022-10-10T04:09:21.430Z,9.10
2022-10-10T04:11:53.533Z,9.10
2022-10-10T04:14:25.790Z,8.10
2022-10-10T04:17:02.832Z,8.60
2022-10-10T04:19:35.224Z,7.50
2022-10-10T04:22:10.946Z,7.50
2022-10-10T04:24:44.384Z,8.30
2022-10-10T04:27:19.581Z,7.20
2022-10-10T04:29:51.520Z,8.10
2022-10-10T04:32:24.290Z,8.50
2022-10-10T04:34:59.159Z,6.00
2022-10-10T04:37:31.260Z,8.30
2022-10-10T04:40:03.174Z,8.40
2022-10-10T04:42:35.310Z,9.10
2022-10-10T04:45:08.481Z,8.30
2022-10-10T04:47:42.403Z,7.40
2022-10-10T04:50:15.610Z,8.00
2022-10-10T04:52:48.026Z,7.30
2022-10-10T04:55:20.910Z,7.60
2022-10-10T04:57:53.240Z,7.70
2022-10-10T05:00:25.539Z,7.10
2022-10-10T05:02:57.735Z,7.30
2022-10-10T05:05:32.679Z,6.90
2022-10-10T05:08:04.941Z,6.90
2022-10-10T05:10:40.942Z,6.70
2022-10-10T05:13:15.123Z,7.40
2022-10-10T05:15:47.208Z,7.70
2022-10-10T05:18:19.752Z,7.80
2022-10-10T05:20:52.350Z,7.40
2022-10-10T05:23:24.358Z,8.30
2022-10-10T05:25:56.211Z,7.50
2022-10-10T05:28:28.452Z,7.70
2022-10-10T05:31:00.360Z,7.60
2022-10-10T05:33:32.584Z,7.50
2022-10-10T05:36:10.920Z,7.40
2022-10-10T05:38:43.753Z,7.00
2022-10-10T05:41:18.002Z,5.60
2022-10-10T05:43:50.931Z,6.20
2022-10-10T05:46:25.102Z,6.10
2022-10-10T05:48:58.338Z,5.70
2022-10-10T05:51:30.448Z,5.50
2022-10-10T05:54:03.121Z,6.20
2022-10-10T05:56:35.218Z,5.10
2022-10-10T05:59:08.102Z,6.20
2022-10-10T06:01:41.152Z,6.80
2022-10-10T06:04:13.830Z,6.00
2022-10-10T06:06:46.175Z,7.40
2022-10-10T06:09:21.571Z,6.90
2022-10-10T06:11:53.712Z,6.90
2022-10-10T06:14:28.581Z,7.20
2022-10-10T06:17:00.605Z,6.90
2022-10-10T06:19:53.502Z,6.60
2022-10-10T06:22:25.899Z,7.00
2022-10-10T06:24:58.330Z,6.70
2022-10-10T06:27:30.302Z,7.30
2022-10-10T06:30:02.561Z,7.30
2022-10-10T06:32:34.480Z,7.00
2022-10-10T06:35:07.192Z,7.20
2022-10-10T06:37:40.071Z,6.10
2022-10-10T06:40:13.320Z,6.60
2022-10-10T06:42:46.050Z,7.80
2022-10-10T06:45:18.813Z,6.20
2022-10-10T06:47:50.813Z,6.20
2022-10-10T06:50:24.233Z,5.70
2022-10-10T06:52:56.240Z,5.50
2022-10-10T06:55:28.663Z,5.80
2022-10-10T06:58:00.791Z,5.50
2022-10-10T07:00:33.180Z,5.90
2022-10-10T07:03:05.309Z,5.40
2022-10-10T07:05:41.483Z,5.00
2022-10-10T07:08:15.608Z,4.80
2022-10-10T07:10:50.638Z,5.80
2022-10-10T07:13:22.883Z,5.60
2022-10-10T07:15:55.562Z,4.80
2022-10-10T07:18:27.701Z,5.60
2022-10-10T07:21:01.470Z,5.90
2022-10-10T07:26:08.027Z,5.80
2022-10-10T07:28:40.361Z,6.40
2022-10-10T07:31:13.402Z,6.60
2022-10-10T07:33:50.393Z,6.80
2022-10-10T07:36:23.444Z,7.40
2022-10-10T07:38:56.012Z,7.20
2022-10-10T07:41:28.434Z,8.20
2022-10-10T07:44:04.910Z,8.00
2022-10-10T07:46:38.529Z,6.90
2022-10-10T07:49:10.804Z,8.20
2022-10-10T07:51:42.905Z,7.10
2022-10-10T07:54:14.890Z,7.70
2022-10-10T07:56:47.064Z,6.60
2022-10-10T07:59:19.122Z,6.90
2022-10-10T08:01:51.356Z,6.40
2022-10-10T08:04:29.461Z,7.10
2022-10-10T08:07:01.951Z,7.10
2022-10-10T08:09:34.086Z,7.40
2022-10-10T08:12:07.290Z,6.70
2022-10-10T08:14:39.709Z,7.10
2022-10-10T08:17:14.092Z,6.40
2022-10-10T08:19:50.460Z,6.20
2022-10-10T08:22:23.072Z,6.20
2022-10-10T08:24:58.232Z,6.30
2022-10-10T08:27:40.766Z,6.50
2022-10-10T08:30:17.335Z,6.40
2022-10-10T08:32:49.685Z,6.10
2022-10-10T08:35:22.288Z,5.40
2022-10-10T08:37:55.092Z,4.50
2022-10-10T08:40:29.110Z,5.10
2022-10-10T08:43:04.992Z,6.10
2022-10-10T08:45:39.591Z,5.80
2022-10-10T08:48:19.010Z,4.40
2022-10-10T08:50:55.103Z,6.20
2022-10-10T08:53:35.028Z,6.40
2022-10-10T08:56:09.851Z,5.90
2022-10-10T08:58:46.981Z,6.40
2022-10-10T09:01:26.465Z,6.50
2022-10-10T09:04:06.900Z,6.30
2022-10-10T09:06:56.930Z,6.50
2022-10-10T09:09:39.031Z,6.10
2022-10-10T09:12:29.470Z,6.70
2022-10-10T09:15:14.072Z,6.60
2022-10-10T09:17:53.421Z,6.20
2022-10-10T09:20:38.365Z,5.60
2022-10-10T09:23:20.540Z,6.30
2022-10-10T09:25:58.168Z,6.10
2022-10-10T09:28:40.179Z,6.00
2022-10-10T09:31:20.406Z,5.90
2022-10-10T09:34:00.525Z,6.50
2022-10-10T09:36:38.502Z,6.40
2022-10-10T09:39:22.724Z,7.50
2022-10-10T09:42:00.291Z,7.20
2022-10-10T09:44:33.738Z,6.30
2022-10-10T09:49:37.323Z,6.50
2022-10-10T09:52:25.520Z,6.00
2022-10-10T09:55:03.101Z,6.60
2022-10-10T09:57:43.052Z,8.80
2022-10-10T10:00:37.101Z,7.60
2022-10-10T10:03:18.648Z,7.80
2022-10-10T10:05:58.831Z,8.60
2022-10-10T10:08:33.707Z,7.60
2022-10-10T10:11:09.470Z,6.90
2022-10-10T10:13:42.989Z,6.30
2022-10-10T10:16:16.512Z,6.40
2022-10-10T10:18:50.420Z,6.40
2022-10-10T10:21:24.908Z,5.90
2022-10-10T10:24:05.363Z,7.00
2022-10-10T10:26:48.454Z,5.50
2022-10-10T10:29:35.598Z,5.90
2022-10-10T10:32:20.611Z,5.90
2022-10-10T10:35:15.553Z,5.90
2022-10-10T10:38:10.675Z,4.90
2022-10-10T10:40:47.162Z,5.70
2022-10-10T10:43:40.528Z,5.80
2022-10-10T10:46:29.400Z,5.00
2022-10-10T10:49:09.442Z,5.40
2022-10-10T10:52:11.861Z,6.00
2022-10-10T10:55:05.542Z,4.50
2022-10-10T10:58:05.171Z,5.00
2022-10-10T11:01:21.104Z,4.60
2022-10-10T11:05:17.480Z,4.00
2022-10-10T11:07:19.428Z,3.20
2022-10-10T11:10:02.959Z,2.70
2022-10-10T11:12:54.918Z,3.00
2022-10-10T11:15:47.974Z,3.90
2022-10-10T11:18:29.280Z,3.40
2022-10-10T11:21:06.738Z,3.10
2022-10-10T11:23:43.798Z,3.60
2022-10-10T11:26:22.145Z,3.50
2022-10-10T11:28:57.300Z,3.80
2022-10-10T11:31:33.911Z,3.60
2022-10-10T11:34:09.763Z,3.20
2022-10-10T11:36:46.124Z,3.20
2022-10-10T11:39:23.001Z,3.30
2022-10-10T11:42:00.088Z,3.50
2022-10-10T11:44:38.313Z,3.30
2022-10-10T11:47:27.460Z,3.50
2022-10-10T11:50:05.591Z,3.50
2022-10-10T11:52:47.889Z,3.20
2022-10-10T11:55:26.770Z,3.10
2022-10-10T11:58:20.089Z,3.50
2022-10-10T12:00:58.716Z,2.70
2022-10-10T12:03:30.837Z,2.90
2022-10-10T12:06:09.792Z,3.40
2022-10-10T12:08:48.177Z,3.20
2022-10-10T12:11:28.437Z,2.70
2022-10-10T12:14:02.664Z,2.50
2022-10-10T12:16:38.532Z,2.70
2022-10-10T12:19:19.727Z,3.00
2022-10-10T12:21:59.138Z,2.80
2022-10-10T12:24:33.419Z,2.90
2022-10-10T12:27:31.339Z,2.20
2022-10-10T12:30:26.413Z,2.70
2022-10-10T12:33:01.549Z,2.30
2022-10-10T12:35:43.006Z,2.50
2022-10-10T12:38:18.987Z,3.10
2022-10-10T12:41:18.695Z,2.30
2022-10-10T12:44:14.399Z,2.60
2022-10-10T12:46:49.118Z,2.90
2022-10-10T12:49:25.929Z,2.20
2022-10-10T12:52:10.020Z,2.40
2022-10-10T12:54:45.753Z,2.40
2022-10-10T12:57:25.420Z,2.20
2022-10-10T13:00:01.943Z,2.80
2022-10-10T13:02:37.178Z,2.60
2022-10-10T13:05:12.597Z,2.50
2022-10-10T13:07:46.877Z,2.50
2022-10-10T13:10:28.813Z,2.40
2022-10-10T13:13:06.638Z,2.40
2022-10-10T13:15:39.328Z,2.40
2022-10-10T13:18:13.425Z,2.40
2022-10-10T13:20:50.567Z,2.10
2022-10-10T13:23:23.331Z,2.50
2022-10-10T13:25:55.657Z,2.40
2022-10-10T13:28:28.054Z,2.50
2022-10-10T13:31:00.639Z,2.30
2022-10-10T13:33:36.209Z,3.10
2022-10-10T13:36:22.969Z,2.20
2022-10-10T13:39:01.388Z,2.40
2022-10-10T13:41:33.932Z,2.30
2022-10-10T13:44:12.579Z,2.90
2022-10-10T13:46:44.937Z,2.60
2022-10-10T13:49:26.547Z,2.90
2022-10-10T13:52:07.407Z,2.60
2022-10-10T13:54:55.887Z,2.60
2022-10-10T13:57:29.919Z,2.40
2022-10-10T14:00:08.129Z,2.70
2022-10-10T14:02:43.389Z,2.10
2022-10-10T14:05:24.001Z,2.90
2022-10-10T14:07:57.698Z,2.90
2022-10-10T14:10:36.500Z,3.20
2022-10-10T14:13:18.272Z,3.20
2022-10-10T14:15:50.989Z,3.20
2022-10-10T14:18:26.480Z,3.00
2022-10-10T14:20:58.828Z,2.70
2022-10-10T14:23:31.044Z,2.60
2022-10-10T14:26:03.749Z,2.60
2022-10-10T14:28:38.798Z,3.10
2022-10-10T14:31:11.297Z,3.50
2022-10-10T14:33:43.457Z,3.70
2022-10-10T14:36:18.005Z,3.80
2022-10-10T14:38:50.087Z,3.30
2022-10-10T14:41:22.230Z,3.00
2022-10-10T14:43:54.277Z,3.80
2022-10-10T14:46:27.011Z,3.50
2022-10-10T14:48:59.206Z,2.90
2022-10-10T14:51:37.649Z,3.30
2022-10-10T14:54:13.679Z,2.90
2022-10-10T14:57:07.801Z,2.40
2022-10-10T14:59:46.316Z,2.80
2022-10-10T15:02:23.583Z,3.10
2022-10-10T15:04:55.967Z,2.60
2022-10-10T15:07:28.565Z,3.00
2022-10-10T15:12:53.306Z,2.50
2022-10-10T15:15:25.577Z,2.70
2022-10-10T15:17:58.305Z,3.30
2022-10-10T15:20:32.177Z,3.00
2022-10-10T15:23:06.196Z,2.90
2022-10-10T15:25:42.908Z,3.10
2022-10-10T15:28:15.511Z,3.10
2022-10-10T15:30:49.914Z,2.70
2022-10-10T15:33:22.068Z,2.90
2022-10-10T15:36:10.446Z,3.10
2022-10-10T15:38:43.748Z,2.70
2022-10-10T15:41:17.414Z,2.80
2022-10-10T15:46:26.987Z,5.20
2022-10-10T15:49:03.868Z,4.70
2022-10-10T15:51:37.210Z,3.80
2022-10-10T15:54:09.417Z,3.50
2022-10-10T15:56:42.347Z,3.80
2022-10-10T15:59:15.480Z,4.80
2022-10-10T16:01:47.487Z,4.20
2022-10-10T16:04:19.783Z,4.60
2022-10-10T16:06:59.375Z,4.00
2022-10-10T16:09:38.788Z,4.50
2022-10-10T16:12:11.537Z,4.10
2022-10-10T16:14:43.560Z,4.90
2022-10-10T16:17:23.855Z,5.40
2022-10-10T16:19:56.798Z,6.80
2022-10-10T16:22:29.056Z,6.90
2022-10-10T16:27:58.339Z,7.00
2022-10-10T16:30:30.580Z,5.00
2022-10-10T16:33:02.953Z,4.70
2022-10-10T16:35:39.129Z,5.10
2022-10-10T16:38:12.288Z,5.00
2022-10-10T16:40:44.597Z,4.20
2022-10-10T16:43:17.859Z,4.10
2022-10-10T16:48:21.762Z,5.60
2022-10-10T16:53:25.007Z,5.30
2022-10-10T16:56:01.456Z,5.40
2022-10-10T16:58:34.057Z,5.30
2022-10-10T17:01:09.090Z,6.10
2022-10-10T17:03:43.476Z,6.10
2022-10-10T17:06:19.268Z,6.50
2022-10-10T17:08:53.431Z,6.70
2022-10-10T17:11:31.520Z,6.40
2022-10-10T17:14:03.797Z,6.40
2022-10-10T17:17:10.681Z,6.00
2022-10-10T17:19:31.137Z,6.30
2022-10-10T17:22:03.268Z,6.50
2022-10-10T17:24:36.847Z,7.50
2022-10-10T17:27:10.143Z,7.00
2022-10-10T17:29:42.658Z,6.70
2022-10-10T17:32:14.741Z,7.60
2022-10-10T17:34:50.022Z,7.80
2022-10-10T17:37:23.088Z,9.30
2022-10-10T17:39:55.551Z,9.10
2022-10-10T17:42:27.633Z,8.60
2022-10-10T17:45:00.756Z,8.40
2022-10-10T17:47:33.450Z,7.20
2022-10-10T17:50:05.668Z,7.80
2022-10-10T17:52:40.419Z,6.90
2022-10-10T17:55:12.901Z,7.20
2022-10-10T17:57:49.091Z,7.30
2022-10-10T18:00:22.038Z,6.80
2022-10-10T18:02:54.079Z,7.60
2022-10-10T18:05:26.658Z,7.50
2022-10-10T18:07:59.028Z,8.80
2022-10-10T18:10:36.324Z,7.50
2022-10-10T18:13:13.766Z,7.60
2022-10-10T18:16:06.259Z,8.60
2022-10-10T18:18:39.477Z,9.50
2022-10-10T18:21:13.844Z,9.00
2022-10-10T18:23:46.754Z,8.00
2022-10-10T18:26:21.456Z,7.70
2022-10-10T18:28:56.077Z,8.00
2022-10-10T18:31:33.512Z,7.60
2022-10-10T18:34:08.388Z,8.50
2022-10-10T18:36:42.948Z,8.00
2022-10-10T18:39:20.151Z,8.20
2022-10-10T18:41:52.697Z,8.10
2022-10-10T18:44:27.808Z,7.40
2022-10-10T18:47:00.400Z,7.30
2022-10-10T18:49:33.277Z,8.60
2022-10-10T18:52:05.709Z,7.40
2022-10-10T18:54:38.237Z,7.30
2022-10-10T18:57:10.637Z,7.60
2022-10-10T18:59:43.120Z,7.90
2022-10-10T19:02:17.431Z,7.80
2022-10-10T19:04:51.279Z,8.00
2022-10-10T19:07:23.392Z,8.40
2022-10-10T19:09:59.938Z,7.90
2022-10-10T19:12:35.112Z,8.80
2022-10-10T19:15:09.031Z,8.70
2022-10-10T19:17:41.787Z,9.60
2022-10-10T19:20:14.970Z,9.70
2022-10-10T19:22:47.528Z,9.70
2022-10-10T19:25:22.847Z,9.20
2022-10-10T19:27:56.400Z,8.70
2022-10-10T19:33:01.317Z,9.50
2022-10-10T19:35:36.974Z,12.30
2022-10-10T19:38:11.120Z,8.60
2022-10-10T19:40:50.195Z,9.30
2022-10-10T19:43:22.829Z,9.20
2022-10-10T19:45:55.987Z,7.70
2022-10-10T19:48:28.554Z,9.00
2022-10-10T19:51:06.567Z,9.00
2022-10-10T19:53:40.525Z,9.00
2022-10-10T19:56:26.189Z,8.70
2022-10-10T19:59:01.306Z,9.30
2022-10-10T20:01:34.151Z,10.10
2022-10-10T20:04:06.500Z,8.80
2022-10-10T20:06:38.798Z,9.00
2022-10-10T20:09:11.218Z,9.90
2022-10-10T20:11:46.091Z,10.40
2022-10-10T20:14:19.928Z,9.20
2022-10-10T20:16:52.896Z,8.80
2022-10-10T20:19:25.523Z,9.80
2022-10-10T20:21:58.187Z,9.40
2022-10-10T20:24:30.459Z,8.90
2022-10-10T20:27:02.792Z,9.20
2022-10-10T20:29:34.757Z,9.20
2022-10-10T20:32:07.307Z,10.00
2022-10-10T20:34:39.468Z,9.00
2022-10-10T20:37:11.816Z,9.80
2022-10-10T20:39:44.150Z,9.60
2022-10-10T20:42:16.357Z,10.80
2022-10-10T20:44:48.670Z,8.70
2022-10-10T20:47:20.727Z,9.30
2022-10-10T20:49:53.328Z,10.90
2022-10-10T20:52:25.529Z,14.20
2022-10-10T20:54:58.939Z,10.10
2022-10-10T20:57:30.997Z,14.40
2022-10-10T21:00:06.323Z,10.70
2022-10-10T21:02:41.519Z,10.00
2022-10-10T21:05:13.919Z,9.70
2022-10-10T21:07:46.817Z,10.60
2022-10-10T21:10:19.298Z,10.70
2022-10-10T21:12:51.656Z,20.00
2022-10-10T21:15:25.149Z,10.90
2022-10-10T21:20:28.210Z,10.30
2022-10-10T21:23:05.727Z,9.90
2022-10-10T21:25:40.579Z,10.00
2022-10-10T21:28:14.420Z,10.00
2022-10-10T21:30:51.879Z,9.90
2022-10-10T21:33:24.169Z,9.30
2022-10-10T21:35:58.681Z,10.20
2022-10-10T21:38:31.587Z,10.60
2022-10-10T21:41:09.017Z,10.80
2022-10-10T21:43:44.919Z,9.10
2022-10-10T21:46:18.684Z,9.70
2022-10-10T21:48:52.191Z,9.20
2022-10-10T21:51:24.728Z,9.90
2022-10-10T21:53:59.009Z,10.50
2022-10-10T21:56:31.109Z,9.80
2022-10-10T21:59:03.438Z,10.80
2022-10-10T22:01:37.967Z,10.00
2022-10-10T22:04:13.569Z,10.20
2022-10-10T22:06:45.818Z,9.80
2022-10-10T22:09:20.867Z,10.60
2022-10-10T22:11:57.618Z,10.30
2022-10-10T22:14:31.818Z,9.70
2022-10-10T22:17:03.837Z,10.50
2022-10-10T22:19:37.351Z,9.90
2022-10-10T22:22:09.822Z,10.60
2022-10-10T22:24:42.451Z,10.50
2022-10-10T22:27:14.528Z,10.40
2022-10-10T22:29:47.283Z,10.90
2022-10-10T22:32:19.931Z,9.90
2022-10-10T22:34:55.149Z,9.90
2022-10-10T22:37:27.879Z,9.90
2022-10-10T22:40:00.219Z,10.40
2022-10-10T22:42:32.658Z,11.00
2022-10-10T22:45:05.369Z,10.00
2022-10-10T22:47:37.658Z,9.80
2022-10-10T22:50:11.437Z,9.90
2022-10-10T22:52:46.745Z,10.50
2022-10-10T22:55:19.159Z,10.80
2022-10-10T22:57:53.078Z,11.20
2022-10-10T23:00:25.261Z,11.00
2022-10-10T23:03:00.028Z,9.30
2022-10-10T23:05:32.789Z,9.70
2022-10-10T23:08:06.647Z,10.30
2022-10-10T23:10:38.871Z,9.50
2022-10-10T23:13:13.057Z,9.00
2022-10-10T23:15:47.149Z,10.20
2022-10-10T23:18:19.486Z,10.30
2022-10-10T23:20:51.957Z,9.30
2022-10-10T23:23:25.765Z,10.40
2022-10-10T23:25:58.137Z,10.20
2022-10-10T23:28:30.579Z,10.90
2022-10-10T23:31:07.676Z,10.40
2022-10-10T23:33:40.378Z,10.40
2022-10-10T23:36:14.646Z,11.10
2022-10-10T23:38:50.016Z,11.50
2022-10-10T23:41:22.237Z,11.80
2022-10-10T23:43:54.221Z,11.20
2022-10-10T23:46:26.597Z,10.30
2022-10-10T23:48:58.715Z,10.50
2022-10-10T23:51:30.855Z,12.20
2022-10-10T23:54:03.015Z,12.50
2022-10-10T23:56:35.217Z,12.10
2022-10-10T23:59:07.458Z,12.80
